sensor_id;sensor_type;location;lat;lon;timestamp;P1;durP1;ratioP1;P2;durP2;ratioP2
43146;SDS011;28752;48.266;7.402;2023-03-09T00:00:46;2.23;;;0.40;;
43146;SDS011;28752;48.266;7.402;2023-03-09T00:03:11;1.03;;;0.20;;
43146;SDS011;28752;48.266;7.402;2023-03-09T00:05:44;0.85;;;0.20;;
43146;SDS011;28752;48.266;7.402;2023-03-09T00:08:22;0.68;;;0.20;;
43146;SDS011;28752;48.266;7.402;2023-03-09T00:10:48;0.75;;;0.30;;
43146;SDS011;28752;48.266;7.402;2023-03-09T00:13:17;3.85;;;0.82;;
43146;SDS011;28752;48.266;7.402;2023-03-09T00:15:43;2.10;;;0.40;;
43146;SDS011;28752;48.266;7.402;2023-03-09T00:18:09;2.88;;;0.40;;
43146;SDS011;28752;48.266;7.402;2023-03-09T00:20:36;3.13;;;0.70;;
43146;SDS011;28752;48.266;7.402;2023-03-09T00:23:02;1.50;;;0.40;;
43146;SDS011;28752;48.266;7.402;2023-03-09T00:25:33;1.40;;;0.50;;
43146;SDS011;28752;48.266;7.402;2023-03-09T00:27:59;1.65;;;0.30;;
43146;SDS011;28752;48.266;7.402;2023-03-09T00:30:24;1.27;;;0.40;;
43146;SDS011;28752;48.266;7.402;2023-03-09T00:32:50;2.33;;;0.50;;
43146;SDS011;28752;48.266;7.402;2023-03-09T00:35:17;1.70;;;0.35;;
43146;SDS011;28752;48.266;7.402;2023-03-09T00:37:43;2.00;;;0.30;;
43146;SDS011;28752;48.266;7.402;2023-03-09T00:40:08;1.33;;;0.40;;
43146;SDS011;28752;48.266;7.402;2023-03-09T00:42:35;0.63;;;0.20;;
43146;SDS011;28752;48.266;7.402;2023-03-09T00:45:04;0.73;;;0.30;;
43146;SDS011;28752;48.266;7.402;2023-03-09T00:47:30;1.63;;;0.43;;
43146;SDS011;28752;48.266;7.402;2023-03-09T00:49:56;2.90;;;0.52;;
43146;SDS011;28752;48.266;7.402;2023-03-09T00:52:21;1.63;;;0.50;;
43146;SDS011;28752;48.266;7.402;2023-03-09T00:54:46;1.57;;;0.50;;
43146;SDS011;28752;48.266;7.402;2023-03-09T00:57:12;3.07;;;0.70;;
43146;SDS011;28752;48.266;7.402;2023-03-09T00:59:37;3.00;;;0.85;;
43146;SDS011;28752;48.266;7.402;2023-03-09T01:02:03;3.43;;;0.60;;
43146;SDS011;28752;48.266;7.402;2023-03-09T01:04:28;2.33;;;0.70;;
43146;SDS011;28752;48.266;7.402;2023-03-09T01:06:54;2.70;;;0.73;;
43146;SDS011;28752;48.266;7.402;2023-03-09T01:09:19;2.53;;;0.90;;
43146;SDS011;28752;48.266;7.402;2023-03-09T01:11:45;3.77;;;0.80;;
43146;SDS011;28752;48.266;7.402;2023-03-09T01:14:10;3.63;;;0.80;;
43146;SDS011;28752;48.266;7.402;2023-03-09T01:16:36;4.27;;;0.97;;
43146;SDS011;28752;48.266;7.402;2023-03-09T01:19:01;3.90;;;1.00;;
43146;SDS011;28752;48.266;7.402;2023-03-09T01:21:26;4.80;;;1.17;;
43146;SDS011;28752;48.266;7.402;2023-03-09T01:23:52;4.23;;;1.07;;
43146;SDS011;28752;48.266;7.402;2023-03-09T01:26:17;2.03;;;0.80;;
43146;SDS011;28752;48.266;7.402;2023-03-09T01:28:43;4.13;;;1.00;;
43146;SDS011;28752;48.266;7.402;2023-03-09T01:31:09;3.00;;;1.00;;
43146;SDS011;28752;48.266;7.402;2023-03-09T01:33:36;4.75;;;1.20;;
43146;SDS011;28752;48.266;7.402;2023-03-09T01:36:08;4.80;;;1.20;;
43146;SDS011;28752;48.266;7.402;2023-03-09T01:38:37;4.30;;;1.03;;
43146;SDS011;28752;48.266;7.402;2023-03-09T01:41:02;4.50;;;1.53;;
43146;SDS011;28752;48.266;7.402;2023-03-09T01:43:41;4.85;;;1.27;;
43146;SDS011;28752;48.266;7.402;2023-03-09T01:52:10;4.03;;;0.93;;
43146;SDS011;28752;48.266;7.402;2023-03-09T01:54:41;3.72;;;1.00;;
43146;SDS011;28752;48.266;7.402;2023-03-09T01:59:45;5.40;;;1.10;;
43146;SDS011;28752;48.266;7.402;2023-03-09T02:02:12;3.13;;;0.80;;
43146;SDS011;28752;48.266;7.402;2023-03-09T02:04:41;2.03;;;0.77;;
43146;SDS011;28752;48.266;7.402;2023-03-09T02:07:13;2.58;;;0.60;;
43146;SDS011;28752;48.266;7.402;2023-03-09T02:10:03;3.67;;;0.60;;
43146;SDS011;28752;48.266;7.402;2023-03-09T02:12:29;2.65;;;0.65;;
43146;SDS011;28752;48.266;7.402;2023-03-09T02:14:55;2.72;;;0.68;;
43146;SDS011;28752;48.266;7.402;2023-03-09T02:17:21;2.20;;;0.70;;
43146;SDS011;28752;48.266;7.402;2023-03-09T02:22:34;2.45;;;0.55;;
43146;SDS011;28752;48.266;7.402;2023-03-09T02:27:55;2.03;;;0.73;;
43146;SDS011;28752;48.266;7.402;2023-03-09T02:30:21;2.03;;;0.60;;
43146;SDS011;28752;48.266;7.402;2023-03-09T02:32:49;4.00;;;0.82;;
43146;SDS011;28752;48.266;7.402;2023-03-09T02:35:15;2.67;;;0.50;;
43146;SDS011;28752;48.266;7.402;2023-03-09T02:37:40;1.77;;;0.70;;
43146;SDS011;28752;48.266;7.402;2023-03-09T02:42:40;3.40;;;0.80;;
43146;SDS011;28752;48.266;7.402;2023-03-09T02:45:07;2.70;;;0.82;;
43146;SDS011;28752;48.266;7.402;2023-03-09T02:47:35;1.40;;;0.40;;
43146;SDS011;28752;48.266;7.402;2023-03-09T02:50:01;3.28;;;0.80;;
43146;SDS011;28752;48.266;7.402;2023-03-09T02:52:26;3.10;;;0.70;;
43146;SDS011;28752;48.266;7.402;2023-03-09T02:54:52;1.63;;;0.40;;
43146;SDS011;28752;48.266;7.402;2023-03-09T02:57:17;2.77;;;0.80;;
43146;SDS011;28752;48.266;7.402;2023-03-09T02:59:42;2.03;;;0.60;;
43146;SDS011;28752;48.266;7.402;2023-03-09T03:02:08;2.23;;;0.30;;
43146;SDS011;28752;48.266;7.402;2023-03-09T03:04:34;2.50;;;0.57;;
43146;SDS011;28752;48.266;7.402;2023-03-09T03:06:59;2.30;;;0.30;;
43146;SDS011;28752;48.266;7.402;2023-03-09T03:09:25;2.87;;;0.47;;
43146;SDS011;28752;48.266;7.402;2023-03-09T03:11:51;4.90;;;2.40;;
43146;SDS011;28752;48.266;7.402;2023-03-09T03:14:16;2.72;;;0.70;;
43146;SDS011;28752;48.266;7.402;2023-03-09T03:16:42;3.30;;;0.80;;
43146;SDS011;28752;48.266;7.402;2023-03-09T03:19:07;3.27;;;0.60;;
43146;SDS011;28752;48.266;7.402;2023-03-09T03:21:32;3.70;;;1.07;;
43146;SDS011;28752;48.266;7.402;2023-03-09T03:23:58;6.18;;;0.80;;
43146;SDS011;28752;48.266;7.402;2023-03-09T03:26:24;5.00;;;1.00;;
43146;SDS011;28752;48.266;7.402;2023-03-09T03:28:49;4.47;;;0.77;;
43146;SDS011;28752;48.266;7.402;2023-03-09T03:31:14;3.60;;;0.90;;
43146;SDS011;28752;48.266;7.402;2023-03-09T03:33:40;5.13;;;1.03;;
43146;SDS011;28752;48.266;7.402;2023-03-09T03:36:05;4.07;;;1.10;;
43146;SDS011;28752;48.266;7.402;2023-03-09T03:38:31;9.20;;;1.25;;
43146;SDS011;28752;48.266;7.402;2023-03-09T03:40:56;5.33;;;1.57;;
43146;SDS011;28752;48.266;7.402;2023-03-09T03:43:22;2.30;;;0.70;;
43146;SDS011;28752;48.266;7.402;2023-03-09T03:45:47;5.13;;;1.10;;
43146;SDS011;28752;48.266;7.402;2023-03-09T03:48:12;3.83;;;1.00;;
43146;SDS011;28752;48.266;7.402;2023-03-09T03:50:38;6.13;;;0.90;;
43146;SDS011;28752;48.266;7.402;2023-03-09T03:53:03;3.97;;;0.90;;
43146;SDS011;28752;48.266;7.402;2023-03-09T03:55:30;6.38;;;1.00;;
43146;SDS011;28752;48.266;7.402;2023-03-09T03:57:55;5.05;;;1.00;;
43146;SDS011;28752;48.266;7.402;2023-03-09T04:00:21;5.40;;;1.20;;
43146;SDS011;28752;48.266;7.402;2023-03-09T04:02:47;4.57;;;0.93;;
43146;SDS011;28752;48.266;7.402;2023-03-09T04:05:13;5.03;;;1.30;;
43146;SDS011;28752;48.266;7.402;2023-03-09T04:07:38;4.27;;;1.07;;
43146;SDS011;28752;48.266;7.402;2023-03-09T04:10:04;6.53;;;1.13;;
43146;SDS011;28752;48.266;7.402;2023-03-09T04:12:30;6.68;;;1.30;;
43146;SDS011;28752;48.266;7.402;2023-03-09T04:14:55;5.87;;;1.10;;
43146;SDS011;28752;48.266;7.402;2023-03-09T04:17:21;8.83;;;1.43;;
43146;SDS011;28752;48.266;7.402;2023-03-09T04:19:46;11.05;;;2.20;;
43146;SDS011;28752;48.266;7.402;2023-03-09T04:22:12;7.73;;;1.83;;
43146;SDS011;28752;48.266;7.402;2023-03-09T04:24:37;8.13;;;1.10;;
43146;SDS011;28752;48.266;7.402;2023-03-09T04:27:02;6.60;;;1.23;;
43146;SDS011;28752;48.266;7.402;2023-03-09T04:29:28;6.80;;;1.67;;
43146;SDS011;28752;48.266;7.402;2023-03-09T04:31:53;7.00;;;1.37;;
43146;SDS011;28752;48.266;7.402;2023-03-09T04:34:18;6.73;;;1.70;;
43146;SDS011;28752;48.266;7.402;2023-03-09T04:36:44;7.50;;;1.40;;
43146;SDS011;28752;48.266;7.402;2023-03-09T04:39:09;7.87;;;1.20;;
43146;SDS011;28752;48.266;7.402;2023-03-09T04:41:35;7.87;;;1.50;;
43146;SDS011;28752;48.266;7.402;2023-03-09T04:44:01;7.63;;;1.42;;
43146;SDS011;28752;48.266;7.402;2023-03-09T04:46:27;5.93;;;1.50;;
43146;SDS011;28752;48.266;7.402;2023-03-09T04:48:52;10.00;;;2.20;;
43146;SDS011;28752;48.266;7.402;2023-03-09T04:51:18;6.90;;;1.38;;
43146;SDS011;28752;48.266;7.402;2023-03-09T04:53:43;8.40;;;1.70;;
43146;SDS011;28752;48.266;7.402;2023-03-09T04:56:09;9.07;;;2.00;;
43146;SDS011;28752;48.266;7.402;2023-03-09T04:58:34;9.93;;;1.83;;
43146;SDS011;28752;48.266;7.402;2023-03-09T05:00:59;8.60;;;2.10;;
43146;SDS011;28752;48.266;7.402;2023-03-09T05:03:26;7.50;;;1.80;;
43146;SDS011;28752;48.266;7.402;2023-03-09T05:05:52;9.07;;;1.92;;
43146;SDS011;28752;48.266;7.402;2023-03-09T05:08:18;9.00;;;1.77;;
43146;SDS011;28752;48.266;7.402;2023-03-09T05:10:43;10.13;;;1.50;;
43146;SDS011;28752;48.266;7.402;2023-03-09T05:13:08;8.07;;;1.77;;
43146;SDS011;28752;48.266;7.402;2023-03-09T05:15:36;7.73;;;1.90;;
43146;SDS011;28752;48.266;7.402;2023-03-09T05:18:03;10.10;;;2.30;;
43146;SDS011;28752;48.266;7.402;2023-03-09T05:20:28;9.17;;;2.10;;
43146;SDS011;28752;48.266;7.402;2023-03-09T05:22:53;9.73;;;1.53;;
43146;SDS011;28752;48.266;7.402;2023-03-09T05:25:22;6.00;;;1.38;;
43146;SDS011;28752;48.266;7.402;2023-03-09T05:27:48;8.05;;;1.90;;
43146;SDS011;28752;48.266;7.402;2023-03-09T05:30:13;6.53;;;1.30;;
43146;SDS011;28752;48.266;7.402;2023-03-09T05:32:39;9.27;;;1.63;;
43146;SDS011;28752;48.266;7.402;2023-03-09T05:35:04;7.23;;;1.47;;
43146;SDS011;28752;48.266;7.402;2023-03-09T05:37:31;7.03;;;1.35;;
43146;SDS011;28752;48.266;7.402;2023-03-09T05:39:58;10.00;;;1.45;;
43146;SDS011;28752;48.266;7.402;2023-03-09T05:42:23;6.10;;;1.20;;
43146;SDS011;28752;48.266;7.402;2023-03-09T05:44:49;15.63;;;3.00;;
43146;SDS011;28752;48.266;7.402;2023-03-09T05:47:14;5.32;;;1.15;;
43146;SDS011;28752;48.266;7.402;2023-03-09T05:49:39;7.83;;;2.00;;
43146;SDS011;28752;48.266;7.402;2023-03-09T05:52:05;7.00;;;1.20;;
43146;SDS011;28752;48.266;7.402;2023-03-09T05:54:30;7.60;;;1.30;;
43146;SDS011;28752;48.266;7.402;2023-03-09T05:56:56;8.67;;;1.23;;
43146;SDS011;28752;48.266;7.402;2023-03-09T05:59:22;8.85;;;1.58;;
43146;SDS011;28752;48.266;7.402;2023-03-09T06:01:47;8.68;;;1.85;;
43146;SDS011;28752;48.266;7.402;2023-03-09T06:04:13;5.65;;;1.60;;
43146;SDS011;28752;48.266;7.402;2023-03-09T06:06:39;7.25;;;1.00;;
43146;SDS011;28752;48.266;7.402;2023-03-09T06:09:04;8.37;;;1.43;;
43146;SDS011;28752;48.266;7.402;2023-03-09T06:11:30;6.13;;;1.33;;
43146;SDS011;28752;48.266;7.402;2023-03-09T06:13:56;7.97;;;1.42;;
43146;SDS011;28752;48.266;7.402;2023-03-09T06:16:22;6.72;;;1.48;;
43146;SDS011;28752;48.266;7.402;2023-03-09T06:18:49;7.43;;;1.40;;
43146;SDS011;28752;48.266;7.402;2023-03-09T06:21:15;7.43;;;1.52;;
43146;SDS011;28752;48.266;7.402;2023-03-09T06:23:41;8.75;;;1.48;;
43146;SDS011;28752;48.266;7.402;2023-03-09T06:26:07;7.27;;;1.47;;
43146;SDS011;28752;48.266;7.402;2023-03-09T06:28:34;7.25;;;1.90;;
43146;SDS011;28752;48.266;7.402;2023-03-09T06:31:11;7.47;;;1.80;;
43146;SDS011;28752;48.266;7.402;2023-03-09T06:33:38;6.45;;;1.33;;
43146;SDS011;28752;48.266;7.402;2023-03-09T06:36:04;5.80;;;1.30;;
43146;SDS011;28752;48.266;7.402;2023-03-09T06:38:30;8.85;;;1.70;;
43146;SDS011;28752;48.266;7.402;2023-03-09T06:40:55;9.50;;;1.63;;
43146;SDS011;28752;48.266;7.402;2023-03-09T06:43:21;9.10;;;1.47;;
43146;SDS011;28752;48.266;7.402;2023-03-09T06:45:47;7.50;;;1.77;;
43146;SDS011;28752;48.266;7.402;2023-03-09T06:48:13;7.27;;;1.20;;
43146;SDS011;28752;48.266;7.402;2023-03-09T06:50:38;6.72;;;1.20;;
43146;SDS011;28752;48.266;7.402;2023-03-09T06:53:04;6.65;;;1.02;;
43146;SDS011;28752;48.266;7.402;2023-03-09T06:55:29;5.90;;;1.75;;
43146;SDS011;28752;48.266;7.402;2023-03-09T06:57:55;3.43;;;0.87;;
43146;SDS011;28752;48.266;7.402;2023-03-09T07:00:20;6.03;;;1.77;;
43146;SDS011;28752;48.266;7.402;2023-03-09T07:02:46;4.82;;;1.27;;
43146;SDS011;28752;48.266;7.402;2023-03-09T07:05:11;6.10;;;1.40;;
43146;SDS011;28752;48.266;7.402;2023-03-09T07:07:37;2.60;;;0.77;;
43146;SDS011;28752;48.266;7.402;2023-03-09T07:10:03;4.93;;;1.40;;
43146;SDS011;28752;48.266;7.402;2023-03-09T07:12:29;4.47;;;0.90;;
43146;SDS011;28752;48.266;7.402;2023-03-09T07:14:55;5.60;;;1.27;;
43146;SDS011;28752;48.266;7.402;2023-03-09T07:17:20;4.47;;;1.00;;
43146;SDS011;28752;48.266;7.402;2023-03-09T07:19:45;4.20;;;0.90;;
43146;SDS011;28752;48.266;7.402;2023-03-09T07:22:11;5.55;;;0.88;;
43146;SDS011;28752;48.266;7.402;2023-03-09T07:24:37;5.10;;;1.25;;
43146;SDS011;28752;48.266;7.402;2023-03-09T07:27:03;2.78;;;0.60;;
43146;SDS011;28752;48.266;7.402;2023-03-09T07:29:28;2.93;;;0.60;;
43146;SDS011;28752;48.266;7.402;2023-03-09T07:31:54;4.25;;;1.13;;
43146;SDS011;28752;48.266;7.402;2023-03-09T07:34:19;3.35;;;0.90;;
43146;SDS011;28752;48.266;7.402;2023-03-09T07:36:46;3.90;;;1.53;;
43146;SDS011;28752;48.266;7.402;2023-03-09T07:39:12;5.25;;;0.70;;
43146;SDS011;28752;48.266;7.402;2023-03-09T07:41:38;5.22;;;1.40;;
43146;SDS011;28752;48.266;7.402;2023-03-09T07:44:03;4.87;;;1.53;;
43146;SDS011;28752;48.266;7.402;2023-03-09T07:46:29;5.17;;;1.57;;
43146;SDS011;28752;48.266;7.402;2023-03-09T07:48:54;3.77;;;1.10;;
43146;SDS011;28752;48.266;7.402;2023-03-09T07:51:20;3.70;;;1.17;;
43146;SDS011;28752;48.266;7.402;2023-03-09T07:53:46;5.15;;;1.30;;
43146;SDS011;28752;48.266;7.402;2023-03-09T07:56:12;3.55;;;0.90;;
43146;SDS011;28752;48.266;7.402;2023-03-09T07:58:37;3.80;;;0.93;;
43146;SDS011;28752;48.266;7.402;2023-03-09T08:01:04;4.47;;;0.77;;
43146;SDS011;28752;48.266;7.402;2023-03-09T08:03:31;4.68;;;0.98;;
43146;SDS011;28752;48.266;7.402;2023-03-09T08:05:59;4.40;;;1.00;;
43146;SDS011;28752;48.266;7.402;2023-03-09T08:08:26;5.93;;;2.00;;
43146;SDS011;28752;48.266;7.402;2023-03-09T08:10:51;4.82;;;2.00;;
43146;SDS011;28752;48.266;7.402;2023-03-09T08:15:44;3.92;;;1.00;;
43146;SDS011;28752;48.266;7.402;2023-03-09T08:18:10;3.88;;;0.60;;
43146;SDS011;28752;48.266;7.402;2023-03-09T08:20:36;3.83;;;0.80;;
43146;SDS011;28752;48.266;7.402;2023-03-09T08:23:02;3.20;;;0.80;;
43146;SDS011;28752;48.266;7.402;2023-03-09T08:25:28;6.60;;;1.25;;
43146;SDS011;28752;48.266;7.402;2023-03-09T08:27:54;3.90;;;1.00;;
43146;SDS011;28752;48.266;7.402;2023-03-09T08:30:20;5.22;;;1.10;;
43146;SDS011;28752;48.266;7.402;2023-03-09T08:32:47;4.93;;;1.00;;
43146;SDS011;28752;48.266;7.402;2023-03-09T08:35:16;6.75;;;1.48;;
43146;SDS011;28752;48.266;7.402;2023-03-09T08:37:43;4.68;;;1.58;;
43146;SDS011;28752;48.266;7.402;2023-03-09T08:40:09;5.32;;;1.10;;
43146;SDS011;28752;48.266;7.402;2023-03-09T08:42:36;6.00;;;1.33;;
43146;SDS011;28752;48.266;7.402;2023-03-09T08:45:01;6.90;;;1.90;;
43146;SDS011;28752;48.266;7.402;2023-03-09T08:47:29;5.80;;;1.45;;
43146;SDS011;28752;48.266;7.402;2023-03-09T08:49:54;5.40;;;1.30;;
43146;SDS011;28752;48.266;7.402;2023-03-09T08:52:19;4.80;;;1.40;;
43146;SDS011;28752;48.266;7.402;2023-03-09T08:54:46;7.43;;;1.37;;
43146;SDS011;28752;48.266;7.402;2023-03-09T08:57:11;6.20;;;1.45;;
43146;SDS011;28752;48.266;7.402;2023-03-09T08:59:37;4.97;;;1.30;;
43146;SDS011;28752;48.266;7.402;2023-03-09T09:02:02;6.90;;;1.20;;
43146;SDS011;28752;48.266;7.402;2023-03-09T09:04:28;5.63;;;1.33;;
43146;SDS011;28752;48.266;7.402;2023-03-09T09:06:54;5.47;;;1.40;;
43146;SDS011;28752;48.266;7.402;2023-03-09T09:09:19;6.25;;;1.27;;
43146;SDS011;28752;48.266;7.402;2023-03-09T09:11:45;7.60;;;1.42;;
43146;SDS011;28752;48.266;7.402;2023-03-09T09:14:11;7.75;;;1.70;;
43146;SDS011;28752;48.266;7.402;2023-03-09T09:16:37;5.80;;;1.63;;
43146;SDS011;28752;48.266;7.402;2023-03-09T09:19:02;4.43;;;1.40;;
43146;SDS011;28752;48.266;7.402;2023-03-09T09:21:27;8.17;;;2.30;;
43146;SDS011;28752;48.266;7.402;2023-03-09T09:23:53;5.77;;;1.57;;
43146;SDS011;28752;48.266;7.402;2023-03-09T09:26:19;8.20;;;1.33;;
43146;SDS011;28752;48.266;7.402;2023-03-09T09:28:44;5.33;;;1.40;;
43146;SDS011;28752;48.266;7.402;2023-03-09T09:31:11;6.38;;;1.50;;
43146;SDS011;28752;48.266;7.402;2023-03-09T09:33:41;11.70;;;1.55;;
43146;SDS011;28752;48.266;7.402;2023-03-09T09:36:08;6.13;;;1.30;;
43146;SDS011;28752;48.266;7.402;2023-03-09T09:38:37;10.20;;;1.58;;
43146;SDS011;28752;48.266;7.402;2023-03-09T09:41:10;7.95;;;2.35;;
43146;SDS011;28752;48.266;7.402;2023-03-09T09:44:18;8.30;;;1.83;;
43146;SDS011;28752;48.266;7.402;2023-03-09T09:46:48;8.23;;;2.00;;
43146;SDS011;28752;48.266;7.402;2023-03-09T09:49:18;8.55;;;1.60;;
43146;SDS011;28752;48.266;7.402;2023-03-09T09:57:08;9.23;;;1.50;;
43146;SDS011;28752;48.266;7.402;2023-03-09T09:59:41;6.75;;;1.60;;
43146;SDS011;28752;48.266;7.402;2023-03-09T10:02:17;8.75;;;1.40;;
43146;SDS011;28752;48.266;7.402;2023-03-09T10:04:55;7.07;;;1.30;;
43146;SDS011;28752;48.266;7.402;2023-03-09T10:07:29;6.82;;;1.30;;
43146;SDS011;28752;48.266;7.402;2023-03-09T10:10:01;3.83;;;1.00;;
43146;SDS011;28752;48.266;7.402;2023-03-09T10:12:29;8.45;;;2.03;;
43146;SDS011;28752;48.266;7.402;2023-03-09T10:14:57;6.43;;;1.43;;
43146;SDS011;28752;48.266;7.402;2023-03-09T10:17:39;6.60;;;1.30;;
43146;SDS011;28752;48.266;7.402;2023-03-09T10:20:13;8.75;;;2.78;;
43146;SDS011;28752;48.266;7.402;2023-03-09T10:22:46;10.80;;;3.20;;
43146;SDS011;28752;48.266;7.402;2023-03-09T10:25:15;9.32;;;2.53;;
43146;SDS011;28752;48.266;7.402;2023-03-09T10:33:08;8.80;;;1.63;;
43146;SDS011;28752;48.266;7.402;2023-03-09T10:38:43;7.05;;;1.52;;
43146;SDS011;28752;48.266;7.402;2023-03-09T10:41:18;6.77;;;1.67;;
43146;SDS011;28752;48.266;7.402;2023-03-09T10:43:45;8.07;;;1.40;;
43146;SDS011;28752;48.266;7.402;2023-03-09T10:48:44;5.85;;;1.15;;
43146;SDS011;28752;48.266;7.402;2023-03-09T10:53:47;5.32;;;1.13;;
43146;SDS011;28752;48.266;7.402;2023-03-09T10:56:20;5.57;;;1.40;;
43146;SDS011;28752;48.266;7.402;2023-03-09T10:58:46;5.80;;;1.40;;
43146;SDS011;28752;48.266;7.402;2023-03-09T11:01:34;5.72;;;1.65;;
43146;SDS011;28752;48.266;7.402;2023-03-09T11:04:01;5.78;;;1.35;;
43146;SDS011;28752;48.266;7.402;2023-03-09T11:12:07;6.43;;;2.00;;
43146;SDS011;28752;48.266;7.402;2023-03-09T11:14:43;5.03;;;1.00;;
43146;SDS011;28752;48.266;7.402;2023-03-09T11:19:50;3.63;;;1.08;;
43146;SDS011;28752;48.266;7.402;2023-03-09T11:22:15;5.20;;;1.30;;
43146;SDS011;28752;48.266;7.402;2023-03-09T11:24:43;5.38;;;1.00;;
43146;SDS011;28752;48.266;7.402;2023-03-09T11:29:50;6.30;;;1.45;;
43146;SDS011;28752;48.266;7.402;2023-03-09T11:32:18;3.65;;;1.10;;
43146;SDS011;28752;48.266;7.402;2023-03-09T11:34:44;4.70;;;1.20;;
43146;SDS011;28752;48.266;7.402;2023-03-09T11:37:21;4.30;;;1.20;;
43146;SDS011;28752;48.266;7.402;2023-03-09T11:39:57;4.25;;;0.88;;
43146;SDS011;28752;48.266;7.402;2023-03-09T11:43:14;4.63;;;1.10;;
43146;SDS011;28752;48.266;7.402;2023-03-09T11:45:22;4.07;;;1.08;;
43146;SDS011;28752;48.266;7.402;2023-03-09T11:47:50;5.13;;;0.98;;
43146;SDS011;28752;48.266;7.402;2023-03-09T11:50:21;4.97;;;0.98;;
43146;SDS011;28752;48.266;7.402;2023-03-09T11:53:13;4.80;;;1.23;;
43146;SDS011;28752;48.266;7.402;2023-03-09T11:55:55;5.63;;;1.45;;
43146;SDS011;28752;48.266;7.402;2023-03-09T11:58:38;8.10;;;1.40;;
43146;SDS011;28752;48.266;7.402;2023-03-09T12:03:59;3.97;;;0.98;;
43146;SDS011;28752;48.266;7.402;2023-03-09T12:08:58;6.22;;;1.20;;
43146;SDS011;28752;48.266;7.402;2023-03-09T12:14:51;4.10;;;0.80;;
43146;SDS011;28752;48.266;7.402;2023-03-09T12:17:30;4.95;;;1.10;;
43146;SDS011;28752;48.266;7.402;2023-03-09T12:20:02;5.13;;;1.13;;
43146;SDS011;28752;48.266;7.402;2023-03-09T12:22:29;4.88;;;1.50;;
43146;SDS011;28752;48.266;7.402;2023-03-09T12:24:59;6.20;;;1.30;;
43146;SDS011;28752;48.266;7.402;2023-03-09T12:27:28;8.05;;;1.83;;
43146;SDS011;28752;48.266;7.402;2023-03-09T12:34:50;4.10;;;0.93;;
43146;SDS011;28752;48.266;7.402;2023-03-09T12:40:01;6.65;;;1.63;;
43146;SDS011;28752;48.266;7.402;2023-03-09T12:42:45;5.22;;;1.45;;
43146;SDS011;28752;48.266;7.402;2023-03-09T12:50:22;9.00;;;1.25;;
43146;SDS011;28752;48.266;7.402;2023-03-09T13:01:11;5.97;;;0.88;;
43146;SDS011;28752;48.266;7.402;2023-03-09T13:06:40;8.98;;;1.58;;
43146;SDS011;28752;48.266;7.402;2023-03-09T13:11:43;7.80;;;1.75;;
43146;SDS011;28752;48.266;7.402;2023-03-09T13:27:04;4.30;;;1.10;;
43146;SDS011;28752;48.266;7.402;2023-03-09T13:29:30;6.35;;;1.50;;
43146;SDS011;28752;48.266;7.402;2023-03-09T13:31:56;15.32;;;2.75;;
43146;SDS011;28752;48.266;7.402;2023-03-09T13:34:24;5.68;;;1.13;;
43146;SDS011;28752;48.266;7.402;2023-03-09T13:36:54;8.80;;;1.55;;
43146;SDS011;28752;48.266;7.402;2023-03-09T13:39:24;7.15;;;1.17;;
43146;SDS011;28752;48.266;7.402;2023-03-09T13:41:50;6.57;;;1.63;;
43146;SDS011;28752;48.266;7.402;2023-03-09T13:44:21;10.88;;;1.42;;
43146;SDS011;28752;48.266;7.402;2023-03-09T13:46:52;8.10;;;2.08;;
43146;SDS011;28752;48.266;7.402;2023-03-09T13:49:21;8.13;;;1.48;;
43146;SDS011;28752;48.266;7.402;2023-03-09T13:51:50;8.50;;;1.98;;
43146;SDS011;28752;48.266;7.402;2023-03-09T13:57:22;9.13;;;1.98;;
43146;SDS011;28752;48.266;7.402;2023-03-09T13:59:55;9.98;;;1.98;;
43146;SDS011;28752;48.266;7.402;2023-03-09T14:02:28;5.70;;;1.40;;
43146;SDS011;28752;48.266;7.402;2023-03-09T14:07:24;5.90;;;1.37;;
43146;SDS011;28752;48.266;7.402;2023-03-09T14:09:56;6.93;;;2.03;;
43146;SDS011;28752;48.266;7.402;2023-03-09T14:12:32;6.80;;;1.48;;
43146;SDS011;28752;48.266;7.402;2023-03-09T14:15:00;7.20;;;1.80;;
43146;SDS011;28752;48.266;7.402;2023-03-09T14:17:27;8.30;;;1.83;;
43146;SDS011;28752;48.266;7.402;2023-03-09T14:19:53;7.32;;;1.40;;
43146;SDS011;28752;48.266;7.402;2023-03-09T14:22:21;5.95;;;1.80;;
43146;SDS011;28752;48.266;7.402;2023-03-09T14:24:52;6.53;;;1.33;;
43146;SDS011;28752;48.266;7.402;2023-03-09T14:29:49;11.15;;;2.03;;
43146;SDS011;28752;48.266;7.402;2023-03-09T14:32:26;9.18;;;1.80;;
43146;SDS011;28752;48.266;7.402;2023-03-09T14:34:55;6.13;;;1.90;;
43146;SDS011;28752;48.266;7.402;2023-03-09T14:37:49;7.38;;;1.73;;
43146;SDS011;28752;48.266;7.402;2023-03-09T14:40:51;8.30;;;1.88;;
43146;SDS011;28752;48.266;7.402;2023-03-09T14:45:52;6.00;;;1.40;;
43146;SDS011;28752;48.266;7.402;2023-03-09T14:48:34;9.20;;;2.45;;
43146;SDS011;28752;48.266;7.402;2023-03-09T14:51:00;7.63;;;1.65;;
43146;SDS011;28752;48.266;7.402;2023-03-09T14:53:31;8.63;;;1.70;;
43146;SDS011;28752;48.266;7.402;2023-03-09T14:55:56;5.87;;;1.53;;
43146;SDS011;28752;48.266;7.402;2023-03-09T14:58:21;7.63;;;1.93;;
43146;SDS011;28752;48.266;7.402;2023-03-09T15:00:47;6.90;;;1.40;;
43146;SDS011;28752;48.266;7.402;2023-03-09T15:03:12;10.30;;;2.07;;
43146;SDS011;28752;48.266;7.402;2023-03-09T15:05:37;6.20;;;1.70;;
43146;SDS011;28752;48.266;7.402;2023-03-09T15:08:03;7.25;;;1.83;;
43146;SDS011;28752;48.266;7.402;2023-03-09T15:10:30;9.40;;;1.88;;
43146;SDS011;28752;48.266;7.402;2023-03-09T15:12:56;7.82;;;1.92;;
43146;SDS011;28752;48.266;7.402;2023-03-09T15:15:23;6.72;;;1.75;;
43146;SDS011;28752;48.266;7.402;2023-03-09T15:17:51;10.73;;;2.38;;
43146;SDS011;28752;48.266;7.402;2023-03-09T15:20:21;6.47;;;1.67;;
43146;SDS011;28752;48.266;7.402;2023-03-09T15:22:48;6.43;;;1.48;;
43146;SDS011;28752;48.266;7.402;2023-03-09T15:25:15;5.68;;;1.75;;
43146;SDS011;28752;48.266;7.402;2023-03-09T15:27:42;8.52;;;1.90;;
43146;SDS011;28752;48.266;7.402;2023-03-09T15:30:15;6.43;;;1.60;;
43146;SDS011;28752;48.266;7.402;2023-03-09T15:32:42;7.40;;;1.70;;
43146;SDS011;28752;48.266;7.402;2023-03-09T15:35:10;6.22;;;1.50;;
43146;SDS011;28752;48.266;7.402;2023-03-09T15:37:38;8.73;;;1.92;;
43146;SDS011;28752;48.266;7.402;2023-03-09T15:40:03;6.45;;;1.80;;
43146;SDS011;28752;48.266;7.402;2023-03-09T15:42:30;6.55;;;1.52;;
43146;SDS011;28752;48.266;7.402;2023-03-09T15:44:55;5.53;;;1.60;;
43146;SDS011;28752;48.266;7.402;2023-03-09T15:47:21;7.10;;;1.67;;
43146;SDS011;28752;48.266;7.402;2023-03-09T15:49:46;8.07;;;2.13;;
43146;SDS011;28752;48.266;7.402;2023-03-09T15:52:12;8.50;;;1.80;;
43146;SDS011;28752;48.266;7.402;2023-03-09T15:54:37;5.20;;;1.47;;
43146;SDS011;28752;48.266;7.402;2023-03-09T15:57:02;7.50;;;1.63;;
43146;SDS011;28752;48.266;7.402;2023-03-09T15:59:29;8.30;;;1.63;;
43146;SDS011;28752;48.266;7.402;2023-03-09T16:01:55;6.43;;;1.50;;
43146;SDS011;28752;48.266;7.402;2023-03-09T16:04:21;8.30;;;1.70;;
43146;SDS011;28752;48.266;7.402;2023-03-09T16:06:47;5.63;;;1.60;;
43146;SDS011;28752;48.266;7.402;2023-03-09T16:09:12;5.70;;;1.60;;
43146;SDS011;28752;48.266;7.402;2023-03-09T16:11:38;9.93;;;2.10;;
43146;SDS011;28752;48.266;7.402;2023-03-09T16:14:03;6.43;;;1.70;;
43146;SDS011;28752;48.266;7.402;2023-03-09T16:16:29;8.70;;;1.70;;
43146;SDS011;28752;48.266;7.402;2023-03-09T16:18:55;6.80;;;1.95;;
43146;SDS011;28752;48.266;7.402;2023-03-09T16:21:20;5.68;;;1.45;;
43146;SDS011;28752;48.266;7.402;2023-03-09T16:23:46;8.73;;;2.00;;
43146;SDS011;28752;48.266;7.402;2023-03-09T16:26:16;7.10;;;2.00;;
43146;SDS011;28752;48.266;7.402;2023-03-09T16:28:42;7.55;;;2.50;;
43146;SDS011;28752;48.266;7.402;2023-03-09T16:31:16;6.28;;;1.98;;
43146;SDS011;28752;48.266;7.402;2023-03-09T16:33:46;7.28;;;1.90;;
43146;SDS011;28752;48.266;7.402;2023-03-09T16:36:11;6.57;;;2.33;;
43146;SDS011;28752;48.266;7.402;2023-03-09T16:38:37;7.78;;;2.50;;